createdAt,value
2019-05-22T03:59:36.290Z,100321.00
2019-05-22T04:02:06.873Z,100325.00
2019-05-22T04:04:40.985Z,100337.00
2019-05-22T04:07:19.293Z,100334.00
2019-05-22T04:09:52.701Z,100343.00
2019-05-22T04:12:23.589Z,100342.00
2019-05-22T04:14:53.514Z,100336.00
2019-05-22T04:17:25.413Z,100335.00
2019-05-22T04:19:56.141Z,100341.00
2019-05-22T04:22:26.395Z,100336.00
2019-05-22T04:24:56.638Z,100351.00
2019-05-22T04:27:26.792Z,100349.00
2019-05-22T04:29:58.118Z,100346.00
2019-05-22T04:32:30.525Z,100354.00
2019-05-22T04:35:01.327Z,100354.00
2019-05-22T04:37:32.041Z,100350.00
2019-05-22T04:40:59.775Z,100353.00
2019-05-22T04:43:34.766Z,100359.00
2019-05-22T04:46:08.337Z,100358.00
2019-05-22T04:48:39.548Z,100362.00
2019-05-22T04:51:31.181Z,100372.00
2019-05-22T04:54:01.207Z,100369.00
2019-05-22T04:56:31.553Z,100370.00
2019-05-22T04:59:01.914Z,100362.00
2019-05-22T05:01:32.094Z,100374.00
2019-05-22T05:04:02.999Z,100360.00
2019-05-22T05:06:37.540Z,100369.00
2019-05-22T05:09:10.481Z,100375.00
2019-05-22T05:11:42.338Z,100367.00
2019-05-22T05:14:12.378Z,100366.00
2019-05-22T05:16:43.349Z,100382.00
2019-05-22T05:19:13.182Z,100383.00
2019-05-22T05:21:43.615Z,100384.00
2019-05-22T05:24:13.431Z,100380.00
2019-05-22T05:26:44.561Z,100382.00
2019-05-22T05:29:29.480Z,100372.00
2019-05-22T05:32:00.394Z,100381.00
2019-05-22T05:34:50.999Z,100388.00
2019-05-22T05:37:22.907Z,100378.00
2019-05-22T05:40:41.419Z,100374.00
2019-05-22T05:43:21.225Z,100373.00
2019-05-22T05:45:52.665Z,100371.00
2019-05-22T05:48:24.312Z,100381.00
2019-05-22T05:51:33.142Z,100378.00
2019-05-22T05:54:20.494Z,100390.00
2019-05-22T05:56:52.459Z,100375.00
2019-05-22T05:59:27.460Z,100371.00
2019-05-22T06:01:57.901Z,100384.00
2019-05-22T06:04:39.475Z,100376.00
2019-05-22T06:07:38.871Z,100385.00
2019-05-22T06:11:09.183Z,100389.00
2019-05-22T06:13:39.521Z,100400.00
2019-05-22T06:17:17.830Z,100408.00
2019-05-22T06:19:51.310Z,100405.00
2019-05-22T06:22:21.930Z,100413.00
2019-05-22T06:25:01.603Z,100415.00
2019-05-22T06:27:54.804Z,100414.00
2019-05-22T06:30:44.702Z,100411.00
2019-05-22T06:33:33.949Z,100411.00
2019-05-22T06:36:08.133Z,100414.00
2019-05-22T06:39:07.015Z,100424.00
2019-05-22T06:41:38.472Z,100423.00
2019-05-22T06:44:35.106Z,100436.00
2019-05-22T06:47:06.805Z,100435.00
2019-05-22T06:49:43.296Z,100444.00
2019-05-22T06:52:15.014Z,100432.00
2019-05-22T06:54:45.556Z,100436.00
2019-05-22T06:57:33.497Z,100447.00
2019-05-22T07:00:15.751Z,100444.00
2019-05-22T07:02:45.865Z,100457.00
2019-05-22T07:05:17.123Z,100455.00
2019-05-22T07:07:48.138Z,100453.00
2019-05-22T07:10:19.539Z,100456.00
2019-05-22T07:12:51.087Z,100448.00
2019-05-22T07:15:46.325Z,100462.00
2019-05-22T07:18:19.689Z,100458.00
2019-05-22T07:20:50.468Z,100458.00
2019-05-22T07:23:25.060Z,100458.00
2019-05-22T07:25:55.900Z,100462.00
2019-05-22T07:28:26.042Z,100466.00
2019-05-22T07:30:56.026Z,100468.00
2019-05-22T07:33:26.287Z,100473.00
2019-05-22T07:36:09.340Z,100467.00
2019-05-22T07:38:28.356Z,100469.00
2019-05-22T07:40:58.283Z,100474.00
2019-05-22T07:43:28.248Z,100484.00
2019-05-22T07:46:00.135Z,100476.00
2019-05-22T07:48:31.516Z,100478.00
2019-05-22T07:51:04.720Z,100478.00
2019-05-22T07:53:34.671Z,100484.00
2019-05-22T07:56:11.386Z,100487.00
2019-05-22T07:58:43.111Z,100495.00
2019-05-22T08:01:13.822Z,100500.00
2019-05-22T08:03:47.623Z,100496.00
2019-05-22T08:06:18.576Z,100497.00
2019-05-22T08:08:52.274Z,100501.00
2019-05-22T08:11:22.445Z,100501.00
2019-05-22T08:13:53.380Z,100504.00
2019-05-22T08:16:23.883Z,100511.00
2019-05-22T08:18:53.690Z,100501.00
2019-05-22T08:21:24.457Z,100498.00
2019-05-22T08:23:55.760Z,100488.00
2019-05-22T08:26:25.574Z,100495.00
2019-05-22T08:28:56.181Z,100503.00
2019-05-22T08:31:27.692Z,100493.00
2019-05-22T08:33:58.180Z,100508.00
2019-05-22T08:36:30.086Z,100504.00
2019-05-22T08:39:01.588Z,100508.00
2019-05-22T08:41:39.075Z,100513.00
2019-05-22T08:44:16.671Z,100509.00
2019-05-22T08:46:41.977Z,100517.00
2019-05-22T08:49:12.297Z,100515.00
2019-05-22T08:51:42.514Z,100524.00
2019-05-22T08:54:13.787Z,100526.00
2019-05-22T08:56:50.461Z,100521.00
2019-05-22T08:59:21.525Z,100539.00
2019-05-22T09:01:52.148Z,100556.00
2019-05-22T09:04:22.283Z,100538.00
2019-05-22T09:06:52.265Z,100548.00
2019-05-22T09:09:22.488Z,100545.00
2019-05-22T09:11:52.298Z,100552.00
2019-05-22T09:14:22.093Z,100559.00
2019-05-22T09:16:52.118Z,100561.00
2019-05-22T09:19:22.468Z,100556.00
2019-05-22T09:21:52.730Z,100560.00
2019-05-22T09:24:26.054Z,100558.00
2019-05-22T09:26:55.991Z,100567.00
2019-05-22T09:29:26.039Z,100567.00
2019-05-22T09:31:55.797Z,100563.00
2019-05-22T09:34:25.910Z,100564.00
2019-05-22T09:36:55.654Z,100569.00
2019-05-22T09:39:25.368Z,100549.00
2019-05-22T09:41:55.240Z,100569.00
2019-05-22T09:44:25.058Z,100558.00
2019-05-22T09:46:55.921Z,100561.00
2019-05-22T09:49:45.950Z,100567.00
2019-05-22T09:52:16.366Z,100560.00
2019-05-22T09:54:47.094Z,100572.00
2019-05-22T09:57:16.939Z,100576.00
2019-05-22T09:59:47.035Z,100565.00
2019-05-22T10:02:16.795Z,100566.00
2019-05-22T10:04:46.589Z,100588.00
2019-05-22T10:07:16.401Z,100589.00
2019-05-22T10:09:46.593Z,100590.00
2019-05-22T10:12:16.863Z,100590.00
2019-05-22T10:14:46.677Z,100598.00
2019-05-22T10:17:18.214Z,100588.00
2019-05-22T10:19:48.554Z,100598.00
2019-05-22T10:22:19.124Z,100593.00
2019-05-22T10:24:50.491Z,100601.00
2019-05-22T10:27:21.944Z,100580.00
2019-05-22T10:30:15.708Z,100590.00
2019-05-22T10:32:45.594Z,100604.00
2019-05-22T10:35:16.514Z,100602.00
2019-05-22T10:37:46.538Z,100596.00
2019-05-22T10:40:17.337Z,100594.00
2019-05-22T10:42:47.611Z,100603.00
2019-05-22T10:45:17.671Z,100602.00
2019-05-22T10:47:49.459Z,100618.00
2019-05-22T10:50:21.294Z,100610.00
2019-05-22T10:52:54.683Z,100620.00
2019-05-22T10:55:23.352Z,100618.00
2019-05-22T10:57:53.516Z,100622.00
2019-05-22T11:00:24.258Z,100618.00
2019-05-22T11:02:54.348Z,100635.00
2019-05-22T11:05:24.829Z,100633.00
2019-05-22T11:07:55.136Z,100647.00
2019-05-22T11:10:25.340Z,100639.00
2019-05-22T11:12:55.370Z,100634.00
2019-05-22T11:15:26.241Z,100639.00
2019-05-22T11:17:56.697Z,100639.00
2019-05-22T11:20:26.847Z,100653.00
2019-05-22T11:22:56.807Z,100644.00
2019-05-22T11:25:26.694Z,100648.00
2019-05-22T11:27:56.485Z,100642.00
2019-05-22T11:30:27.347Z,100643.00
2019-05-22T11:32:58.353Z,100650.00
2019-05-22T11:35:29.001Z,100655.00
2019-05-22T11:37:58.780Z,100647.00
2019-05-22T11:40:28.590Z,100655.00
2019-05-22T11:42:59.124Z,100662.00
2019-05-22T11:45:29.757Z,100674.00
2019-05-22T11:47:59.767Z,100656.00
2019-05-22T11:50:31.272Z,100654.00
2019-05-22T11:53:01.329Z,100650.00
2019-05-22T11:55:43.696Z,100665.00
2019-05-22T11:58:03.483Z,100660.00
2019-05-22T12:00:33.333Z,100654.00
2019-05-22T12:03:04.299Z,100654.00
2019-05-22T12:05:34.802Z,100654.00
2019-05-22T12:08:05.523Z,100650.00
2019-05-22T12:10:36.329Z,100655.00
2019-05-22T12:13:07.274Z,100664.00
2019-05-22T12:15:38.293Z,100661.00
2019-05-22T12:18:08.640Z,100659.00
2019-05-22T12:20:38.904Z,100662.00
2019-05-22T12:23:08.671Z,100668.00
2019-05-22T12:25:39.040Z,100668.00
2019-05-22T12:28:09.054Z,100663.00
2019-05-22T12:30:40.195Z,100671.00
2019-05-22T12:33:13.541Z,100669.00
2019-05-22T12:35:43.961Z,100672.00
2019-05-22T12:38:14.912Z,100667.00
2019-05-22T12:40:46.508Z,100669.00
2019-05-22T12:43:16.840Z,100680.00
2019-05-22T12:45:47.194Z,100666.00
2019-05-22T12:48:18.048Z,100685.00
2019-05-22T12:50:48.644Z,100667.00
2019-05-22T12:53:19.750Z,100679.00
2019-05-22T12:55:49.895Z,100681.00
2019-05-22T12:58:20.402Z,100678.00
2019-05-22T13:00:51.222Z,100675.00
2019-05-22T13:03:22.297Z,100677.00
2019-05-22T13:05:52.232Z,100681.00
2019-05-22T13:08:23.324Z,100688.00
2019-05-22T13:10:54.000Z,100678.00
2019-05-22T13:13:24.129Z,100687.00
2019-05-22T13:15:55.505Z,100679.00
2019-05-22T13:18:25.546Z,100686.00
2019-05-22T13:20:57.237Z,100695.00
2019-05-22T13:23:35.628Z,100692.00
2019-05-22T13:26:06.378Z,100688.00
2019-05-22T13:28:37.222Z,100697.00
2019-05-22T13:31:07.537Z,100688.00
2019-05-22T13:33:38.224Z,100691.00
2019-05-22T13:36:10.244Z,100705.00
2019-05-22T13:38:40.587Z,100686.00
2019-05-22T13:41:11.466Z,100709.00
2019-05-22T13:43:41.469Z,100698.00
2019-05-22T13:46:11.296Z,100703.00
2019-05-22T13:48:41.500Z,100691.00
2019-05-22T13:51:13.067Z,100709.00
2019-05-22T13:53:43.509Z,100714.00
2019-05-22T13:56:14.167Z,100717.00
2019-05-22T13:58:44.298Z,100711.00
2019-05-22T14:01:14.364Z,100718.00
2019-05-22T14:03:44.259Z,100725.00
2019-05-22T14:06:14.070Z,100719.00
2019-05-22T14:08:44.786Z,100725.00
2019-05-22T14:11:16.290Z,100732.00
2019-05-22T14:13:47.408Z,100729.00
2019-05-22T14:16:17.707Z,100732.00
2019-05-22T14:18:47.546Z,100736.00
2019-05-22T14:21:17.473Z,100739.00
2019-05-22T14:23:47.331Z,100743.00
2019-05-22T14:26:17.251Z,100736.00
2019-05-22T14:28:47.386Z,100739.00
2019-05-22T14:31:17.688Z,100738.00
2019-05-22T14:33:47.658Z,100735.00
2019-05-22T14:36:19.055Z,100739.00
2019-05-22T14:38:49.425Z,100741.00
2019-05-22T14:41:19.848Z,100739.00
2019-05-22T14:43:49.980Z,100738.00
2019-05-22T14:46:19.909Z,100742.00
2019-05-22T14:48:50.199Z,100738.00
2019-05-22T14:51:21.283Z,100749.00
2019-05-22T14:53:53.148Z,100747.00
2019-05-22T14:56:24.576Z,100750.00
2019-05-22T14:58:55.834Z,100742.00
2019-05-22T15:01:26.403Z,100740.00
2019-05-22T15:03:56.398Z,100742.00
2019-05-22T15:06:26.869Z,100765.00
2019-05-22T15:08:56.683Z,100762.00
2019-05-22T15:11:27.440Z,100764.00
2019-05-22T15:13:57.811Z,100763.00
2019-05-22T15:16:28.043Z,100761.00
2019-05-22T15:18:58.294Z,100767.00
2019-05-22T15:21:29.057Z,100770.00
2019-05-22T15:23:59.548Z,100781.00
2019-05-22T15:26:29.976Z,100771.00
2019-05-22T15:29:00.381Z,100768.00
2019-05-22T15:31:30.869Z,100771.00
2019-05-22T15:34:02.268Z,100771.00
2019-05-22T15:36:32.640Z,100767.00
2019-05-22T15:39:05.154Z,100771.00
2019-05-22T15:41:35.399Z,100780.00
2019-05-22T15:44:06.902Z,100758.00
2019-05-22T15:46:37.972Z,100768.00
2019-05-22T15:49:09.694Z,100769.00
2019-05-22T15:51:40.987Z,100778.00
2019-05-22T15:54:12.808Z,100786.00
2019-05-22T15:56:43.962Z,100774.00
2019-05-22T15:59:16.835Z,100782.00
2019-05-22T16:01:47.806Z,100783.00
2019-05-22T16:04:20.192Z,100784.00
2019-05-22T16:06:51.086Z,100788.00
2019-05-22T16:09:23.600Z,100785.00
2019-05-22T16:11:55.420Z,100792.00
2019-05-22T16:14:31.552Z,100794.00
2019-05-22T16:17:03.947Z,100782.00
2019-05-22T16:19:34.762Z,100781.00
2019-05-22T16:22:08.850Z,100791.00
2019-05-22T16:24:40.576Z,100790.00
2019-05-22T16:27:12.650Z,100792.00
2019-05-22T16:29:43.732Z,100797.00
2019-05-22T16:32:16.302Z,100799.00
2019-05-22T16:34:46.537Z,100797.00
2019-05-22T16:37:17.580Z,100798.00
2019-05-22T16:39:50.483Z,100800.00
2019-05-22T16:42:21.807Z,100809.00
2019-05-22T16:44:51.806Z,100809.00
2019-05-22T16:47:24.150Z,100807.00
2019-05-22T16:49:54.506Z,100809.00
2019-05-22T16:52:28.975Z,100808.00
2019-05-22T16:54:59.659Z,100800.00
2019-05-22T16:57:31.521Z,100806.00
2019-05-22T17:00:02.100Z,100767.00
2019-05-22T17:02:34.823Z,100807.00
2019-05-22T17:05:05.934Z,100817.00
2019-05-22T17:07:37.599Z,100813.00
2019-05-22T17:10:10.097Z,100803.00
2019-05-22T17:12:40.548Z,100810.00
2019-05-22T17:15:15.658Z,100811.00
2019-05-22T17:17:46.891Z,100813.00
2019-05-22T17:20:19.556Z,100807.00
2019-05-22T17:22:49.681Z,100812.00
2019-05-22T17:25:21.654Z,100817.00
2019-05-22T17:27:52.055Z,100811.00
2019-05-22T17:30:24.416Z,100817.00
2019-05-22T17:32:54.893Z,100812.00
2019-05-22T17:35:25.422Z,100818.00
2019-05-22T17:37:56.020Z,100820.00
2019-05-22T17:40:26.374Z,100811.00
2019-05-22T17:42:57.281Z,100816.00
2019-05-22T17:45:46.856Z,100821.00
2019-05-22T17:48:19.907Z,100812.00
2019-05-22T17:50:50.170Z,100813.00
2019-05-22T17:53:20.844Z,100820.00
2019-05-22T17:55:50.937Z,100819.00
2019-05-22T17:58:24.898Z,100828.00
2019-05-22T18:00:54.391Z,100826.00
2019-05-22T18:03:24.502Z,100820.00
2019-05-22T18:05:54.923Z,100837.00
2019-05-22T18:08:25.019Z,100838.00
2019-05-22T18:10:55.870Z,100831.00
2019-05-22T18:13:26.658Z,100843.00
2019-05-22T18:15:56.631Z,100848.00
2019-05-22T18:18:26.405Z,100847.00
2019-05-22T18:20:56.604Z,100836.00
2019-05-22T18:23:26.543Z,100852.00
2019-05-22T18:25:56.341Z,100856.00
2019-05-22T18:28:26.955Z,100866.00
2019-05-22T18:30:57.071Z,100869.00
2019-05-22T18:33:27.282Z,100863.00
2019-05-22T18:35:57.153Z,100872.00
2019-05-22T18:38:27.149Z,100864.00
2019-05-22T18:40:57.444Z,100866.00
2019-05-22T18:43:27.931Z,100879.00
2019-05-22T18:45:57.951Z,100874.00
2019-05-22T18:48:28.502Z,100881.00
2019-05-22T18:50:58.612Z,100877.00
2019-05-22T18:53:29.436Z,100881.00
2019-05-22T18:55:59.403Z,100881.00
2019-05-22T18:58:29.765Z,100880.00
2019-05-22T19:00:59.670Z,100892.00
2019-05-22T19:03:29.640Z,100894.00
2019-05-22T19:06:29.623Z,100893.00
2019-05-22T19:08:51.500Z,100915.00
2019-05-22T19:11:21.447Z,100907.00
2019-05-22T19:13:51.266Z,100913.00
2019-05-22T19:16:21.213Z,100919.00
2019-05-22T19:18:51.193Z,100916.00
2019-05-22T19:21:21.139Z,100924.00
2019-05-22T19:23:50.897Z,100917.00
2019-05-22T19:26:21.151Z,100915.00
2019-05-22T19:28:51.433Z,100918.00
2019-05-22T19:31:21.445Z,100925.00
2019-05-22T19:33:51.254Z,100923.00
2019-05-22T19:36:21.046Z,100926.00
2019-05-22T19:38:51.129Z,100926.00
2019-05-22T19:41:20.937Z,100924.00
2019-05-22T19:43:51.488Z,100937.00
2019-05-22T19:46:40.819Z,100929.00
2019-05-22T19:49:11.671Z,100935.00
2019-05-22T19:51:43.059Z,100924.00
2019-05-22T19:54:13.033Z,100936.00
2019-05-22T19:56:43.970Z,100941.00
2019-05-22T19:59:14.131Z,100947.00
2019-05-22T20:01:44.210Z,100945.00
2019-05-22T20:04:14.413Z,100954.00
2019-05-22T20:06:44.515Z,100955.00
2019-05-22T20:09:15.144Z,100957.00
2019-05-22T20:11:45.602Z,100958.00
2019-05-22T20:14:16.189Z,100959.00
2019-05-22T20:16:46.515Z,100952.00
2019-05-22T20:19:16.786Z,100958.00
2019-05-22T20:21:47.254Z,100957.00
2019-05-22T20:24:17.363Z,100961.00
2019-05-22T20:26:47.336Z,100960.00
2019-05-22T20:29:17.113Z,100969.00
2019-05-22T20:31:46.946Z,100956.00
2019-05-22T20:34:17.366Z,100961.00
2019-05-22T20:36:47.372Z,100972.00
2019-05-22T20:39:18.043Z,100964.00
2019-05-22T20:41:47.930Z,100977.00
2019-05-22T20:44:19.155Z,100979.00
2019-05-22T20:46:50.886Z,100978.00
2019-05-22T20:49:22.705Z,100972.00
2019-05-22T20:51:53.784Z,100975.00
2019-05-22T20:54:24.535Z,100973.00
2019-05-22T20:56:55.070Z,100984.00
2019-05-22T20:59:25.272Z,100973.00
2019-05-22T21:01:55.435Z,100990.00
2019-05-22T21:04:27.269Z,100984.00
2019-05-22T21:07:03.221Z,100994.00
2019-05-22T21:09:33.566Z,100985.00
2019-05-22T21:12:04.835Z,100988.00
2019-05-22T21:14:35.259Z,100993.00
2019-05-22T21:17:06.177Z,100995.00
2019-05-22T21:19:55.295Z,100992.00
2019-05-22T21:22:25.305Z,100990.00
2019-05-22T21:24:55.424Z,100995.00
2019-05-22T21:27:25.172Z,100993.00
2019-05-22T21:29:56.256Z,100992.00
2019-05-22T21:32:28.614Z,100987.00
2019-05-22T21:34:58.844Z,100994.00
2019-05-22T21:37:29.015Z,100991.00
2019-05-22T21:39:59.260Z,100993.00
2019-05-22T21:42:31.011Z,100985.00
2019-05-22T21:45:01.466Z,100996.00
2019-05-22T21:47:32.181Z,100985.00
2019-05-22T21:50:02.467Z,100995.00
2019-05-22T21:52:33.385Z,100989.00
2019-05-22T21:55:03.691Z,100998.00
2019-05-22T21:57:33.647Z,100983.00
2019-05-22T22:00:05.819Z,100990.00
2019-05-22T22:02:40.208Z,100994.00
2019-05-22T22:05:11.200Z,100992.00
2019-05-22T22:07:42.077Z,100997.00
2019-05-22T22:10:14.484Z,100996.00
2019-05-22T22:12:45.440Z,101003.00
2019-05-22T22:15:15.934Z,100999.00
2019-05-22T22:17:46.830Z,100997.00
2019-05-22T22:20:17.545Z,101009.00
2019-05-22T22:22:49.467Z,101009.00
2019-05-22T22:25:21.381Z,101014.00
2019-05-22T22:27:51.643Z,101007.00
2019-05-22T22:30:29.214Z,101013.00
2019-05-22T22:33:02.970Z,101010.00
2019-05-22T22:35:33.532Z,101009.00
2019-05-22T22:38:04.275Z,101022.00
2019-05-22T22:40:34.381Z,101018.00
2019-05-22T22:43:05.583Z,101015.00
2019-05-22T22:45:48.076Z,101021.00
2019-05-22T22:48:19.803Z,101026.00
2019-05-22T22:50:50.090Z,101021.00
2019-05-22T22:53:21.171Z,101020.00
2019-05-22T22:55:51.737Z,101018.00
2019-05-22T22:58:22.923Z,101020.00
2019-05-22T23:00:55.120Z,101010.00
2019-05-22T23:03:28.624Z,101011.00
2019-05-22T23:05:58.686Z,101014.00
2019-05-22T23:08:32.896Z,101023.00
2019-05-22T23:11:04.616Z,101014.00
2019-05-22T23:13:35.493Z,101025.00
2019-05-22T23:16:06.643Z,101027.00
2019-05-22T23:19:33.586Z,101027.00
2019-05-22T23:22:03.184Z,101022.00
2019-05-22T23:24:34.908Z,101032.00
2019-05-22T23:27:06.886Z,101030.00
2019-05-22T23:29:38.564Z,101022.00
2019-05-22T23:32:11.778Z,101024.00
2019-05-22T23:34:43.372Z,101019.00
2019-05-22T23:37:14.914Z,101023.00
2019-05-22T23:39:47.684Z,101026.00
2019-05-22T23:42:22.527Z,101042.00
2019-05-22T23:44:57.023Z,101036.00
2019-05-22T23:47:27.031Z,101038.00
2019-05-22T23:49:57.264Z,101037.00
2019-05-22T23:52:27.776Z,101044.00
2019-05-22T23:54:59.544Z,101034.00
2019-05-22T23:57:29.284Z,101034.00
